Hlavní strana
METAR-TAF:

METAR-TAF

Letiště :

Kosrae, Mikronésie

zeměpisná šířka: 05-21N, zeměpisná délka: 162-57E, výška: 3 m

Aktuální stav počasí

Zpráva byla vytvořena před 46 minutami, v 13:50 UTC
Východojihovýchodní vítr 5 kt
Teplota 28°C
Vlhkost vzduchu 79%
Tlak 1010 hPa
Viditelnost: 16.1 km
Polojasno ve výšce 1900 ft
Oblačno až skoro zataženo ve výšce 13000 ft
Zataženo ve výšce 30000 ft

METAR: PTSA 241350Z COR 12005KT 10SM SCT019 BKN130 OVC300 28/24 A2983 RMK FIRST

Čas: 01:36 (14:36 UTC)

Předpověď počasí

Zpráva byla vytvořena před 1 hodinou a 20 minutami, v 13:16 UTC
Předpověď platná od 24 v 13 UTC do 25 v 12 UTC
vítr z různých směrů 5 kt
Viditelnost: 10 km
Polojasno ve výšce 1800 ft
Polojasno ve výšce 14000 ft
přeháňky v blízkosti

TAF: PTSA 241316Z 2413/2512 VRB05KT P6SM VCSH SCT018 SCT140

Stav a předpovědi počasí z více než 4 000 letišť (zprávy METAR a TAF).

Červené a žluté tečky na mapě představují dostupné meteorologické stanice.

Když kurzor umístíte na tečku, zobrazí se název stanice.

Pak kliknutím zobrazíte stav a předpověď počasí.

Chcete-li změnit mapu, kliknutím na zelené tlačítko se znaménkem +mapu přiblížíte, kliknutím na zelené tlačítko se znaménkem – mapu oddálíte a kliknutím na zelené šipky přejdete na sousední mapy.


METAR-TAF: